sensor_id;sensor_type;location;lat;lon;timestamp;temperature;humidity
10312;DHT22;5201;48.776;9.128;2024-02-26T00:01:27;9.50;99.90
10312;DHT22;5201;48.776;9.128;2024-02-26T00:03:53;9.60;99.90
10312;DHT22;5201;48.776;9.128;2024-02-26T00:06:20;9.60;99.90
10312;DHT22;5201;48.776;9.128;2024-02-26T00:08:46;9.60;99.90
10312;DHT22;5201;48.776;9.128;2024-02-26T00:11:12;9.50;99.90
10312;DHT22;5201;48.776;9.128;2024-02-26T00:13:37;9.60;99.90
10312;DHT22;5201;48.776;9.128;2024-02-26T00:16:06;9.50;99.90
10312;DHT22;5201;48.776;9.128;2024-02-26T00:18:33;9.20;99.90
10312;DHT22;5201;48.776;9.128;2024-02-26T00:20:58;9.10;99.90
10312;DHT22;5201;48.776;9.128;2024-02-26T00:23:24;9.40;99.90
10312;DHT22;5201;48.776;9.128;2024-02-26T00:25:49;9.00;99.90
10312;DHT22;5201;48.776;9.128;2024-02-26T00:28:18;9.00;99.90
10312;DHT22;5201;48.776;9.128;2024-02-26T00:30:45;9.50;99.90
10312;DHT22;5201;48.776;9.128;2024-02-26T00:33:11;9.00;99.90
10312;DHT22;5201;48.776;9.128;2024-02-26T00:35:37;9.00;99.90
10312;DHT22;5201;48.776;9.128;2024-02-26T00:38:03;9.00;99.90
10312;DHT22;5201;48.776;9.128;2024-02-26T00:40:29;9.10;99.90
10312;DHT22;5201;48.776;9.128;2024-02-26T00:42:55;10.10;99.90
10312;DHT22;5201;48.776;9.128;2024-02-26T00:45:20;9.20;99.90
10312;DHT22;5201;48.776;9.128;2024-02-26T00:47:46;9.30;99.90
10312;DHT22;5201;48.776;9.128;2024-02-26T00:50:13;9.30;99.90
10312;DHT22;5201;48.776;9.128;2024-02-26T00:52:39;9.30;99.90
10312;DHT22;5201;48.776;9.128;2024-02-26T00:55:05;9.40;99.90
10312;DHT22;5201;48.776;9.128;2024-02-26T00:57:31;9.30;99.90
10312;DHT22;5201;48.776;9.128;2024-02-26T00:59:57;9.30;99.90
10312;DHT22;5201;48.776;9.128;2024-02-26T01:02:22;9.20;99.90
10312;DHT22;5201;48.776;9.128;2024-02-26T01:04:48;9.20;99.90
10312;DHT22;5201;48.776;9.128;2024-02-26T01:07:14;9.30;99.90
10312;DHT22;5201;48.776;9.128;2024-02-26T01:09:39;9.30;99.90
10312;DHT22;5201;48.776;9.128;2024-02-26T01:12:05;9.20;99.90
10312;DHT22;5201;48.776;9.128;2024-02-26T01:14:31;9.20;99.90
10312;DHT22;5201;48.776;9.128;2024-02-26T01:16:57;9.30;99.90
10312;DHT22;5201;48.776;9.128;2024-02-26T01:19:22;9.40;99.90
10312;DHT22;5201;48.776;9.128;2024-02-26T01:21:48;9.50;99.90
10312;DHT22;5201;48.776;9.128;2024-02-26T01:24:13;9.60;99.90
10312;DHT22;5201;48.776;9.128;2024-02-26T01:26:39;9.50;99.90
10312;DHT22;5201;48.776;9.128;2024-02-26T01:29:05;9.50;99.90
10312;DHT22;5201;48.776;9.128;2024-02-26T01:31:30;9.40;99.90
10312;DHT22;5201;48.776;9.128;2024-02-26T01:33:56;9.50;99.90
10312;DHT22;5201;48.776;9.128;2024-02-26T01:36:22;9.40;99.90
10312;DHT22;5201;48.776;9.128;2024-02-26T01:38:47;9.50;99.90
10312;DHT22;5201;48.776;9.128;2024-02-26T01:41:16;9.50;99.90
10312;DHT22;5201;48.776;9.128;2024-02-26T01:43:42;9.50;99.90
10312;DHT22;5201;48.776;9.128;2024-02-26T01:46:12;9.50;99.90
10312;DHT22;5201;48.776;9.128;2024-02-26T01:48:42;9.50;99.90
10312;DHT22;5201;48.776;9.128;2024-02-26T01:51:08;9.40;99.90
10312;DHT22;5201;48.776;9.128;2024-02-26T01:53:35;9.40;99.90
10312;DHT22;5201;48.776;9.128;2024-02-26T01:56:01;9.50;99.90
10312;DHT22;5201;48.776;9.128;2024-02-26T01:58:27;9.50;99.90
10312;DHT22;5201;48.776;9.128;2024-02-26T02:00:53;9.40;99.90
10312;DHT22;5201;48.776;9.128;2024-02-26T02:03:19;9.40;99.90
10312;DHT22;5201;48.776;9.128;2024-02-26T02:05:44;9.50;99.90
10312;DHT22;5201;48.776;9.128;2024-02-26T02:08:13;9.40;99.90
10312;DHT22;5201;48.776;9.128;2024-02-26T02:10:43;9.80;99.90
10312;DHT22;5201;48.776;9.128;2024-02-26T02:13:09;9.10;99.90
10312;DHT22;5201;48.776;9.128;2024-02-26T02:15:35;9.60;99.90
10312;DHT22;5201;48.776;9.128;2024-02-26T02:18:00;9.20;99.90
10312;DHT22;5201;48.776;9.128;2024-02-26T02:20:35;8.90;99.90
10312;DHT22;5201;48.776;9.128;2024-02-26T02:23:00;8.90;99.90
10312;DHT22;5201;48.776;9.128;2024-02-26T02:25:26;9.20;99.90
10312;DHT22;5201;48.776;9.128;2024-02-26T02:27:53;9.00;99.90
10312;DHT22;5201;48.776;9.128;2024-02-26T02:30:21;9.10;99.90
10312;DHT22;5201;48.776;9.128;2024-02-26T02:32:46;8.80;99.90
10312;DHT22;5201;48.776;9.128;2024-02-26T02:35:12;8.70;99.90
10312;DHT22;5201;48.776;9.128;2024-02-26T02:37:38;8.90;99.90
10312;DHT22;5201;48.776;9.128;2024-02-26T02:40:04;8.90;99.90
10312;DHT22;5201;48.776;9.128;2024-02-26T02:42:30;8.90;99.90
10312;DHT22;5201;48.776;9.128;2024-02-26T02:44:56;9.00;99.90
10312;DHT22;5201;48.776;9.128;2024-02-26T02:47:22;9.10;99.90
10312;DHT22;5201;48.776;9.128;2024-02-26T02:49:47;9.10;99.90
10312;DHT22;5201;48.776;9.128;2024-02-26T02:52:13;8.90;99.90
10312;DHT22;5201;48.776;9.128;2024-02-26T02:54:39;9.00;99.90
10312;DHT22;5201;48.776;9.128;2024-02-26T02:57:07;9.10;99.90
10312;DHT22;5201;48.776;9.128;2024-02-26T02:59:33;9.20;99.90
10312;DHT22;5201;48.776;9.128;2024-02-26T03:01:59;9.20;99.90
10312;DHT22;5201;48.776;9.128;2024-02-26T03:04:24;9.20;99.90
10312;DHT22;5201;48.776;9.128;2024-02-26T03:06:50;9.20;99.90
10312;DHT22;5201;48.776;9.128;2024-02-26T03:09:16;9.10;99.90
10312;DHT22;5201;48.776;9.128;2024-02-26T03:11:41;9.20;99.90
10312;DHT22;5201;48.776;9.128;2024-02-26T03:14:07;9.30;99.90
10312;DHT22;5201;48.776;9.128;2024-02-26T03:16:33;9.40;99.90
10312;DHT22;5201;48.776;9.128;2024-02-26T03:18:58;9.50;99.90
10312;DHT22;5201;48.776;9.128;2024-02-26T03:21:25;9.50;99.90
10312;DHT22;5201;48.776;9.128;2024-02-26T03:23:51;9.60;99.90
10312;DHT22;5201;48.776;9.128;2024-02-26T03:26:16;9.70;99.90
10312;DHT22;5201;48.776;9.128;2024-02-26T03:28:42;9.80;99.90
10312;DHT22;5201;48.776;9.128;2024-02-26T03:31:07;9.60;99.90
10312;DHT22;5201;48.776;9.128;2024-02-26T03:33:34;9.60;99.90
10312;DHT22;5201;48.776;9.128;2024-02-26T03:35:59;9.60;99.90
10312;DHT22;5201;48.776;9.128;2024-02-26T03:38:25;9.60;99.90
10312;DHT22;5201;48.776;9.128;2024-02-26T03:40:51;9.70;99.90
10312;DHT22;5201;48.776;9.128;2024-02-26T03:43:16;9.70;99.90
10312;DHT22;5201;48.776;9.128;2024-02-26T03:45:42;10.00;99.90
10312;DHT22;5201;48.776;9.128;2024-02-26T03:48:08;10.30;99.90
10312;DHT22;5201;48.776;9.128;2024-02-26T03:50:34;9.70;99.90
10312;DHT22;5201;48.776;9.128;2024-02-26T03:53:00;9.70;99.90
10312;DHT22;5201;48.776;9.128;2024-02-26T03:55:25;9.80;99.90
10312;DHT22;5201;48.776;9.128;2024-02-26T03:57:52;9.80;99.90
10312;DHT22;5201;48.776;9.128;2024-02-26T04:00:20;9.60;99.90
10312;DHT22;5201;48.776;9.128;2024-02-26T04:02:47;9.60;99.90
10312;DHT22;5201;48.776;9.128;2024-02-26T04:05:13;9.50;99.90
10312;DHT22;5201;48.776;9.128;2024-02-26T04:07:42;7.30;99.90
10312;DHT22;5201;48.776;9.128;2024-02-26T04:10:11;9.50;99.90
10312;DHT22;5201;48.776;9.128;2024-02-26T04:12:40;9.80;99.90
10312;DHT22;5201;48.776;9.128;2024-02-26T04:15:10;9.40;99.90
10312;DHT22;5201;48.776;9.128;2024-02-26T04:17:36;9.20;99.90
10312;DHT22;5201;48.776;9.128;2024-02-26T04:20:03;8.90;99.90
10312;DHT22;5201;48.776;9.128;2024-02-26T04:22:29;8.80;99.90
10312;DHT22;5201;48.776;9.128;2024-02-26T04:24:54;8.70;99.90
10312;DHT22;5201;48.776;9.128;2024-02-26T04:27:20;8.60;99.90
10312;DHT22;5201;48.776;9.128;2024-02-26T04:29:45;8.60;99.90
10312;DHT22;5201;48.776;9.128;2024-02-26T04:32:11;8.60;99.90
10312;DHT22;5201;48.776;9.128;2024-02-26T04:34:36;8.50;99.90
10312;DHT22;5201;48.776;9.128;2024-02-26T04:37:02;8.40;99.90
10312;DHT22;5201;48.776;9.128;2024-02-26T04:39:28;8.20;99.90
10312;DHT22;5201;48.776;9.128;2024-02-26T04:41:54;8.40;99.90
10312;DHT22;5201;48.776;9.128;2024-02-26T04:44:19;8.50;99.90
10312;DHT22;5201;48.776;9.128;2024-02-26T04:46:45;8.40;99.90
10312;DHT22;5201;48.776;9.128;2024-02-26T04:49:10;8.50;99.90
10312;DHT22;5201;48.776;9.128;2024-02-26T04:51:36;8.70;99.90
10312;DHT22;5201;48.776;9.128;2024-02-26T04:54:02;10.50;99.90
10312;DHT22;5201;48.776;9.128;2024-02-26T04:56:28;8.90;99.90
10312;DHT22;5201;48.776;9.128;2024-02-26T04:58:53;8.80;99.90
10312;DHT22;5201;48.776;9.128;2024-02-26T05:01:19;8.90;99.90
10312;DHT22;5201;48.776;9.128;2024-02-26T05:03:45;8.90;99.90
10312;DHT22;5201;48.776;9.128;2024-02-26T05:06:10;9.00;99.90
10312;DHT22;5201;48.776;9.128;2024-02-26T05:08:36;9.00;99.90
10312;DHT22;5201;48.776;9.128;2024-02-26T05:11:03;9.00;99.90
10312;DHT22;5201;48.776;9.128;2024-02-26T05:13:29;9.20;99.90
10312;DHT22;5201;48.776;9.128;2024-02-26T05:15:55;9.00;99.90
10312;DHT22;5201;48.776;9.128;2024-02-26T05:18:22;9.00;99.90
10312;DHT22;5201;48.776;9.128;2024-02-26T05:20:47;9.00;99.90
10312;DHT22;5201;48.776;9.128;2024-02-26T05:23:13;9.00;99.90
10312;DHT22;5201;48.776;9.128;2024-02-26T05:25:39;8.90;99.90
10312;DHT22;5201;48.776;9.128;2024-02-26T05:28:05;8.80;99.90
10312;DHT22;5201;48.776;9.128;2024-02-26T05:30:31;8.70;99.90
10312;DHT22;5201;48.776;9.128;2024-02-26T05:32:56;8.70;99.90
10312;DHT22;5201;48.776;9.128;2024-02-26T05:35:22;8.80;99.90
10312;DHT22;5201;48.776;9.128;2024-02-26T05:37:47;8.70;99.90
10312;DHT22;5201;48.776;9.128;2024-02-26T05:40:13;8.80;99.90
10312;DHT22;5201;48.776;9.128;2024-02-26T05:42:39;8.80;99.90
10312;DHT22;5201;48.776;9.128;2024-02-26T05:45:05;8.80;99.90
10312;DHT22;5201;48.776;9.128;2024-02-26T05:47:34;8.60;99.90
10312;DHT22;5201;48.776;9.128;2024-02-26T05:50:00;8.60;99.90
10312;DHT22;5201;48.776;9.128;2024-02-26T05:52:27;8.60;99.90
10312;DHT22;5201;48.776;9.128;2024-02-26T05:54:53;8.70;99.90
10312;DHT22;5201;48.776;9.128;2024-02-26T05:57:19;8.70;99.90
10312;DHT22;5201;48.776;9.128;2024-02-26T05:59:45;8.80;99.90
10312;DHT22;5201;48.776;9.128;2024-02-26T06:02:10;9.00;99.90
10312;DHT22;5201;48.776;9.128;2024-02-26T06:04:36;8.80;99.90
10312;DHT22;5201;48.776;9.128;2024-02-26T06:07:02;8.80;99.90
10312;DHT22;5201;48.776;9.128;2024-02-26T06:09:27;8.80;99.90
10312;DHT22;5201;48.776;9.128;2024-02-26T06:11:53;8.80;99.90
10312;DHT22;5201;48.776;9.128;2024-02-26T06:14:19;8.80;99.90
10312;DHT22;5201;48.776;9.128;2024-02-26T06:16:46;9.00;99.90
10312;DHT22;5201;48.776;9.128;2024-02-26T06:19:11;8.70;99.90
10312;DHT22;5201;48.776;9.128;2024-02-26T06:21:37;9.00;99.90
10312;DHT22;5201;48.776;9.128;2024-02-26T06:24:03;8.70;99.90
10312;DHT22;5201;48.776;9.128;2024-02-26T06:26:28;8.70;99.90
10312;DHT22;5201;48.776;9.128;2024-02-26T06:28:55;8.60;99.90
10312;DHT22;5201;48.776;9.128;2024-02-26T06:31:21;8.60;99.90
10312;DHT22;5201;48.776;9.128;2024-02-26T06:33:48;8.60;99.90
10312;DHT22;5201;48.776;9.128;2024-02-26T06:36:15;8.60;99.90
10312;DHT22;5201;48.776;9.128;2024-02-26T06:38:41;8.50;99.90
10312;DHT22;5201;48.776;9.128;2024-02-26T06:41:06;8.50;99.90
10312;DHT22;5201;48.776;9.128;2024-02-26T06:43:32;8.50;99.90
10312;DHT22;5201;48.776;9.128;2024-02-26T06:45:58;8.60;99.90
10312;DHT22;5201;48.776;9.128;2024-02-26T06:48:24;8.50;99.90
10312;DHT22;5201;48.776;9.128;2024-02-26T06:50:50;8.50;99.90
10312;DHT22;5201;48.776;9.128;2024-02-26T06:53:16;8.90;99.90
10312;DHT22;5201;48.776;9.128;2024-02-26T06:55:42;8.60;99.90
10312;DHT22;5201;48.776;9.128;2024-02-26T06:58:08;8.50;99.90
10312;DHT22;5201;48.776;9.128;2024-02-26T07:00:35;8.60;99.90
10312;DHT22;5201;48.776;9.128;2024-02-26T07:03:00;8.60;99.90
10312;DHT22;5201;48.776;9.128;2024-02-26T07:05:27;8.60;99.90
10312;DHT22;5201;48.776;9.128;2024-02-26T07:07:52;8.70;99.90
10312;DHT22;5201;48.776;9.128;2024-02-26T07:10:18;8.70;99.90
10312;DHT22;5201;48.776;9.128;2024-02-26T07:12:44;8.80;99.90
10312;DHT22;5201;48.776;9.128;2024-02-26T07:15:10;8.90;99.90
10312;DHT22;5201;48.776;9.128;2024-02-26T07:17:36;8.80;99.90
10312;DHT22;5201;48.776;9.128;2024-02-26T07:20:02;8.90;99.90
10312;DHT22;5201;48.776;9.128;2024-02-26T07:22:31;9.00;99.90
10312;DHT22;5201;48.776;9.128;2024-02-26T07:24:56;9.00;99.90
10312;DHT22;5201;48.776;9.128;2024-02-26T07:27:22;9.00;99.90
10312;DHT22;5201;48.776;9.128;2024-02-26T07:29:48;9.00;99.90
10312;DHT22;5201;48.776;9.128;2024-02-26T07:32:14;9.10;99.90
10312;DHT22;5201;48.776;9.128;2024-02-26T07:34:39;9.30;99.90
10312;DHT22;5201;48.776;9.128;2024-02-26T07:37:07;9.40;99.90
10312;DHT22;5201;48.776;9.128;2024-02-26T07:39:33;9.10;99.90
10312;DHT22;5201;48.776;9.128;2024-02-26T07:41:59;8.90;99.90
10312;DHT22;5201;48.776;9.128;2024-02-26T07:44:24;8.80;99.90
10312;DHT22;5201;48.776;9.128;2024-02-26T07:46:50;8.80;99.90
10312;DHT22;5201;48.776;9.128;2024-02-26T07:49:16;8.80;99.90
10312;DHT22;5201;48.776;9.128;2024-02-26T07:51:41;9.40;99.90
10312;DHT22;5201;48.776;9.128;2024-02-26T07:54:07;9.00;99.90
10312;DHT22;5201;48.776;9.128;2024-02-26T07:56:33;9.10;99.90
10312;DHT22;5201;48.776;9.128;2024-02-26T07:58:58;9.10;99.90
10312;DHT22;5201;48.776;9.128;2024-02-26T08:01:24;9.20;99.90
10312;DHT22;5201;48.776;9.128;2024-02-26T08:03:52;9.20;99.90
10312;DHT22;5201;48.776;9.128;2024-02-26T08:06:18;9.10;99.90
10312;DHT22;5201;48.776;9.128;2024-02-26T08:08:43;9.20;99.90
10312;DHT22;5201;48.776;9.128;2024-02-26T08:11:09;9.30;99.90
10312;DHT22;5201;48.776;9.128;2024-02-26T08:13:35;9.20;99.90
10312;DHT22;5201;48.776;9.128;2024-02-26T08:16:01;9.20;99.90
10312;DHT22;5201;48.776;9.128;2024-02-26T08:18:27;9.10;99.90
10312;DHT22;5201;48.776;9.128;2024-02-26T08:20:52;9.30;99.90
10312;DHT22;5201;48.776;9.128;2024-02-26T08:23:18;9.40;99.90
10312;DHT22;5201;48.776;9.128;2024-02-26T08:25:44;9.40;99.90
10312;DHT22;5201;48.776;9.128;2024-02-26T08:28:09;9.40;99.90
10312;DHT22;5201;48.776;9.128;2024-02-26T08:30:38;9.40;99.90
10312;DHT22;5201;48.776;9.128;2024-02-26T08:33:04;9.40;99.90
10312;DHT22;5201;48.776;9.128;2024-02-26T08:35:30;9.40;99.90
10312;DHT22;5201;48.776;9.128;2024-02-26T08:37:55;9.40;99.90
10312;DHT22;5201;48.776;9.128;2024-02-26T08:40:21;9.40;99.90
10312;DHT22;5201;48.776;9.128;2024-02-26T08:42:47;9.30;99.90
10312;DHT22;5201;48.776;9.128;2024-02-26T08:45:13;9.20;99.90
10312;DHT22;5201;48.776;9.128;2024-02-26T08:47:38;9.30;99.90
10312;DHT22;5201;48.776;9.128;2024-02-26T08:50:05;9.50;99.90
10312;DHT22;5201;48.776;9.128;2024-02-26T08:52:30;9.50;99.90
10312;DHT22;5201;48.776;9.128;2024-02-26T08:54:56;9.60;99.90
10312;DHT22;5201;48.776;9.128;2024-02-26T08:57:22;9.70;99.90
10312;DHT22;5201;48.776;9.128;2024-02-26T08:59:48;9.80;99.90
10312;DHT22;5201;48.776;9.128;2024-02-26T09:02:13;9.80;99.90
10312;DHT22;5201;48.776;9.128;2024-02-26T09:04:39;9.90;99.90
10312;DHT22;5201;48.776;9.128;2024-02-26T09:07:05;11.60;99.90
10312;DHT22;5201;48.776;9.128;2024-02-26T09:09:31;10.10;99.90
10312;DHT22;5201;48.776;9.128;2024-02-26T09:11:57;9.80;99.90
10312;DHT22;5201;48.776;9.128;2024-02-26T09:14:22;10.00;99.90
10312;DHT22;5201;48.776;9.128;2024-02-26T09:16:48;10.10;99.90
10312;DHT22;5201;48.776;9.128;2024-02-26T09:19:14;10.30;99.90
10312;DHT22;5201;48.776;9.128;2024-02-26T09:21:46;10.20;99.90
10312;DHT22;5201;48.776;9.128;2024-02-26T09:24:12;10.30;99.90
10312;DHT22;5201;48.776;9.128;2024-02-26T09:26:38;10.50;99.90
10312;DHT22;5201;48.776;9.128;2024-02-26T09:29:04;10.50;99.90
10312;DHT22;5201;48.776;9.128;2024-02-26T09:31:30;10.60;99.90
10312;DHT22;5201;48.776;9.128;2024-02-26T09:33:55;10.70;99.90
10312;DHT22;5201;48.776;9.128;2024-02-26T09:36:21;10.80;99.90
10312;DHT22;5201;48.776;9.128;2024-02-26T09:38:48;10.80;99.90
10312;DHT22;5201;48.776;9.128;2024-02-26T09:41:16;10.90;99.90
10312;DHT22;5201;48.776;9.128;2024-02-26T09:43:44;10.80;99.90
10312;DHT22;5201;48.776;9.128;2024-02-26T09:46:12;10.60;99.90
10312;DHT22;5201;48.776;9.128;2024-02-26T09:48:38;10.80;99.90
10312;DHT22;5201;48.776;9.128;2024-02-26T09:51:04;10.80;99.90
10312;DHT22;5201;48.776;9.128;2024-02-26T09:53:31;10.80;99.90
10312;DHT22;5201;48.776;9.128;2024-02-26T09:55:58;10.80;99.90
10312;DHT22;5201;48.776;9.128;2024-02-26T09:58:25;11.00;99.90
10312;DHT22;5201;48.776;9.128;2024-02-26T10:00:56;11.00;99.90
10312;DHT22;5201;48.776;9.128;2024-02-26T10:03:28;11.10;99.90
10312;DHT22;5201;48.776;9.128;2024-02-26T10:05:55;11.30;99.90
10312;DHT22;5201;48.776;9.128;2024-02-26T10:08:23;11.60;99.90
10312;DHT22;5201;48.776;9.128;2024-02-26T10:10:49;11.70;99.90
10312;DHT22;5201;48.776;9.128;2024-02-26T10:13:15;11.80;99.90
10312;DHT22;5201;48.776;9.128;2024-02-26T10:15:41;11.90;99.90
10312;DHT22;5201;48.776;9.128;2024-02-26T10:18:07;12.10;99.90
10312;DHT22;5201;48.776;9.128;2024-02-26T10:20:33;12.20;99.90
10312;DHT22;5201;48.776;9.128;2024-02-26T10:23:02;12.40;99.90
10312;DHT22;5201;48.776;9.128;2024-02-26T10:25:28;12.10;99.90
10312;DHT22;5201;48.776;9.128;2024-02-26T10:27:53;12.20;99.90
10312;DHT22;5201;48.776;9.128;2024-02-26T10:30:22;12.40;99.90
10312;DHT22;5201;48.776;9.128;2024-02-26T10:32:51;12.40;99.90
10312;DHT22;5201;48.776;9.128;2024-02-26T10:35:18;12.40;99.90
10312;DHT22;5201;48.776;9.128;2024-02-26T10:37:46;12.30;99.90
10312;DHT22;5201;48.776;9.128;2024-02-26T10:40:15;12.60;99.90
10312;DHT22;5201;48.776;9.128;2024-02-26T10:42:42;12.80;99.90
10312;DHT22;5201;48.776;9.128;2024-02-26T10:45:09;12.90;99.90
10312;DHT22;5201;48.776;9.128;2024-02-26T10:47:36;12.60;99.90
10312;DHT22;5201;48.776;9.128;2024-02-26T10:50:03;12.50;99.90
10312;DHT22;5201;48.776;9.128;2024-02-26T10:52:32;12.50;99.90
10312;DHT22;5201;48.776;9.128;2024-02-26T10:55:00;12.20;99.90
10312;DHT22;5201;48.776;9.128;2024-02-26T10:57:35;12.20;99.90
10312;DHT22;5201;48.776;9.128;2024-02-26T11:00:03;12.30;99.90
10312;DHT22;5201;48.776;9.128;2024-02-26T11:02:33;12.50;99.90
10312;DHT22;5201;48.776;9.128;2024-02-26T11:05:03;12.80;99.90
10312;DHT22;5201;48.776;9.128;2024-02-26T11:07:30;12.90;99.90
10312;DHT22;5201;48.776;9.128;2024-02-26T11:09:59;12.80;99.90
10312;DHT22;5201;48.776;9.128;2024-02-26T11:12:25;12.90;99.90
10312;DHT22;5201;48.776;9.128;2024-02-26T11:14:52;13.00;99.90
10312;DHT22;5201;48.776;9.128;2024-02-26T11:17:26;13.00;99.90
10312;DHT22;5201;48.776;9.128;2024-02-26T11:19:56;13.10;99.90
10312;DHT22;5201;48.776;9.128;2024-02-26T11:22:21;13.40;99.90
10312;DHT22;5201;48.776;9.128;2024-02-26T11:24:48;13.40;99.90
10312;DHT22;5201;48.776;9.128;2024-02-26T11:27:16;13.40;99.90
10312;DHT22;5201;48.776;9.128;2024-02-26T11:29:47;13.40;99.90
10312;DHT22;5201;48.776;9.128;2024-02-26T11:32:14;13.40;99.90
10312;DHT22;5201;48.776;9.128;2024-02-26T11:34:41;13.30;99.90
10312;DHT22;5201;48.776;9.128;2024-02-26T11:37:14;13.30;99.90
10312;DHT22;5201;48.776;9.128;2024-02-26T11:39:41;13.30;99.90
10312;DHT22;5201;48.776;9.128;2024-02-26T11:42:08;13.30;99.90
10312;DHT22;5201;48.776;9.128;2024-02-26T11:44:34;12.50;99.90
10312;DHT22;5201;48.776;9.128;2024-02-26T11:47:17;13.30;99.90
10312;DHT22;5201;48.776;9.128;2024-02-26T11:49:43;13.20;99.90
10312;DHT22;5201;48.776;9.128;2024-02-26T11:52:10;13.40;99.90
10312;DHT22;5201;48.776;9.128;2024-02-26T11:54:47;13.70;99.90
10312;DHT22;5201;48.776;9.128;2024-02-26T11:57:37;13.90;99.90
10312;DHT22;5201;48.776;9.128;2024-02-26T12:00:15;13.50;99.90
10312;DHT22;5201;48.776;9.128;2024-02-26T12:05:23;13.20;99.90
10312;DHT22;5201;48.776;9.128;2024-02-26T12:07:53;13.30;99.90
10312;DHT22;5201;48.776;9.128;2024-02-26T12:10:28;13.20;99.90
10312;DHT22;5201;48.776;9.128;2024-02-26T12:13:02;12.90;99.90
10312;DHT22;5201;48.776;9.128;2024-02-26T12:15:36;13.30;99.90
10312;DHT22;5201;48.776;9.128;2024-02-26T12:18:04;13.10;99.90
10312;DHT22;5201;48.776;9.128;2024-02-26T12:20:30;13.00;99.90
10312;DHT22;5201;48.776;9.128;2024-02-26T12:22:57;12.80;99.90
10312;DHT22;5201;48.776;9.128;2024-02-26T12:25:25;13.00;99.90
10312;DHT22;5201;48.776;9.128;2024-02-26T12:27:52;13.10;99.90
10312;DHT22;5201;48.776;9.128;2024-02-26T12:30:17;13.20;99.90
10312;DHT22;5201;48.776;9.128;2024-02-26T12:32:45;13.20;99.90
10312;DHT22;5201;48.776;9.128;2024-02-26T12:35:10;13.40;99.90
10312;DHT22;5201;48.776;9.128;2024-02-26T12:37:36;13.50;99.90
10312;DHT22;5201;48.776;9.128;2024-02-26T12:40:08;13.60;99.90
10312;DHT22;5201;48.776;9.128;2024-02-26T12:42:34;13.60;99.90
10312;DHT22;5201;48.776;9.128;2024-02-26T12:45:05;13.70;99.90
10312;DHT22;5201;48.776;9.128;2024-02-26T12:47:38;13.70;99.90
10312;DHT22;5201;48.776;9.128;2024-02-26T12:50:04;13.70;99.90
10312;DHT22;5201;48.776;9.128;2024-02-26T12:52:34;13.60;99.90
10312;DHT22;5201;48.776;9.128;2024-02-26T12:55:01;13.60;99.90
10312;DHT22;5201;48.776;9.128;2024-02-26T12:57:31;13.70;99.90
10312;DHT22;5201;48.776;9.128;2024-02-26T13:00:02;13.80;99.90
10312;DHT22;5201;48.776;9.128;2024-02-26T13:02:30;13.80;99.90
10312;DHT22;5201;48.776;9.128;2024-02-26T13:04:57;13.80;99.90
10312;DHT22;5201;48.776;9.128;2024-02-26T13:07:23;14.20;99.90
10312;DHT22;5201;48.776;9.128;2024-02-26T13:09:49;13.90;99.90
10312;DHT22;5201;48.776;9.128;2024-02-26T13:12:16;13.80;99.90
10312;DHT22;5201;48.776;9.128;2024-02-26T13:14:42;13.90;99.90
10312;DHT22;5201;48.776;9.128;2024-02-26T13:17:08;14.00;99.90
10312;DHT22;5201;48.776;9.128;2024-02-26T13:19:34;13.90;99.90
10312;DHT22;5201;48.776;9.128;2024-02-26T13:22:06;13.90;99.90
10312;DHT22;5201;48.776;9.128;2024-02-26T13:24:33;14.00;99.90
10312;DHT22;5201;48.776;9.128;2024-02-26T13:26:59;14.00;99.90
10312;DHT22;5201;48.776;9.128;2024-02-26T13:29:24;14.00;99.90
10312;DHT22;5201;48.776;9.128;2024-02-26T13:31:55;14.10;99.90
10312;DHT22;5201;48.776;9.128;2024-02-26T13:34:28;14.00;99.90
10312;DHT22;5201;48.776;9.128;2024-02-26T13:36:56;13.90;99.90
10312;DHT22;5201;48.776;9.128;2024-02-26T13:39:26;13.90;99.90
10312;DHT22;5201;48.776;9.128;2024-02-26T13:41:52;13.80;99.90
10312;DHT22;5201;48.776;9.128;2024-02-26T13:44:19;13.70;99.90
10312;DHT22;5201;48.776;9.128;2024-02-26T13:46:45;13.70;99.90
10312;DHT22;5201;48.776;9.128;2024-02-26T13:49:11;13.70;99.90
10312;DHT22;5201;48.776;9.128;2024-02-26T13:51:37;13.60;99.90
10312;DHT22;5201;48.776;9.128;2024-02-26T13:54:03;13.60;99.90
10312;DHT22;5201;48.776;9.128;2024-02-26T13:56:29;13.80;99.90
10312;DHT22;5201;48.776;9.128;2024-02-26T13:58:55;13.90;99.90
10312;DHT22;5201;48.776;9.128;2024-02-26T14:01:21;14.10;99.90
10312;DHT22;5201;48.776;9.128;2024-02-26T14:03:46;14.00;99.90
10312;DHT22;5201;48.776;9.128;2024-02-26T14:06:12;14.00;99.90
10312;DHT22;5201;48.776;9.128;2024-02-26T14:08:38;13.90;99.90
10312;DHT22;5201;48.776;9.128;2024-02-26T14:11:03;13.80;99.90
10312;DHT22;5201;48.776;9.128;2024-02-26T14:13:29;13.80;99.90
10312;DHT22;5201;48.776;9.128;2024-02-26T14:15:55;13.90;99.90
10312;DHT22;5201;48.776;9.128;2024-02-26T14:18:21;13.60;99.90
10312;DHT22;5201;48.776;9.128;2024-02-26T14:20:47;13.60;99.90
10312;DHT22;5201;48.776;9.128;2024-02-26T14:23:12;13.80;99.90
10312;DHT22;5201;48.776;9.128;2024-02-26T14:25:38;13.60;99.90
10312;DHT22;5201;48.776;9.128;2024-02-26T14:28:04;13.80;99.90
10312;DHT22;5201;48.776;9.128;2024-02-26T14:30:29;13.80;99.90
10312;DHT22;5201;48.776;9.128;2024-02-26T14:32:55;13.80;99.90
10312;DHT22;5201;48.776;9.128;2024-02-26T14:35:21;13.60;99.90
10312;DHT22;5201;48.776;9.128;2024-02-26T14:37:46;13.40;99.90
10312;DHT22;5201;48.776;9.128;2024-02-26T14:40:13;13.90;99.90
10312;DHT22;5201;48.776;9.128;2024-02-26T14:42:40;13.60;99.90
10312;DHT22;5201;48.776;9.128;2024-02-26T14:45:06;13.70;99.90
10312;DHT22;5201;48.776;9.128;2024-02-26T14:47:34;13.80;99.90
10312;DHT22;5201;48.776;9.128;2024-02-26T14:50:00;13.80;99.90
10312;DHT22;5201;48.776;9.128;2024-02-26T14:52:26;13.70;99.90
10312;DHT22;5201;48.776;9.128;2024-02-26T14:54:51;13.70;99.90
10312;DHT22;5201;48.776;9.128;2024-02-26T14:57:18;13.50;99.90
10312;DHT22;5201;48.776;9.128;2024-02-26T14:59:44;13.70;99.90
10312;DHT22;5201;48.776;9.128;2024-02-26T15:02:10;13.60;99.90
10312;DHT22;5201;48.776;9.128;2024-02-26T15:04:36;13.60;99.90
10312;DHT22;5201;48.776;9.128;2024-02-26T15:07:02;13.50;99.90
10312;DHT22;5201;48.776;9.128;2024-02-26T15:09:28;13.50;99.90
10312;DHT22;5201;48.776;9.128;2024-02-26T15:11:53;13.60;99.90
10312;DHT22;5201;48.776;9.128;2024-02-26T15:14:19;13.50;99.90
10312;DHT22;5201;48.776;9.128;2024-02-26T15:16:45;13.80;99.90
10312;DHT22;5201;48.776;9.128;2024-02-26T15:19:10;13.60;99.90
10312;DHT22;5201;48.776;9.128;2024-02-26T15:21:43;13.80;99.90
10312;DHT22;5201;48.776;9.128;2024-02-26T15:24:09;13.50;99.90
10312;DHT22;5201;48.776;9.128;2024-02-26T15:26:37;13.50;99.90
10312;DHT22;5201;48.776;9.128;2024-02-26T15:29:02;14.00;99.90
10312;DHT22;5201;48.776;9.128;2024-02-26T15:31:28;13.50;99.90
10312;DHT22;5201;48.776;9.128;2024-02-26T15:33:54;13.60;99.90
10312;DHT22;5201;48.776;9.128;2024-02-26T15:36:19;13.90;99.90
10312;DHT22;5201;48.776;9.128;2024-02-26T15:38:45;13.60;99.90
10312;DHT22;5201;48.776;9.128;2024-02-26T15:41:11;13.70;99.90
10312;DHT22;5201;48.776;9.128;2024-02-26T15:43:38;14.20;99.90
10312;DHT22;5201;48.776;9.128;2024-02-26T15:46:03;13.70;99.90
10312;DHT22;5201;48.776;9.128;2024-02-26T15:48:30;13.70;99.90
10312;DHT22;5201;48.776;9.128;2024-02-26T15:50:56;13.70;99.90
10312;DHT22;5201;48.776;9.128;2024-02-26T15:53:21;13.60;99.90